createdAt,value
2019-01-05T04:55:56.342Z,24.07
2019-01-05T04:59:15.421Z,25.20
2019-01-05T05:02:43.362Z,23.87
2019-01-05T05:05:53.303Z,22.73
2019-01-05T05:09:09.896Z,25.10
2019-01-05T05:12:10.983Z,25.53
2019-01-05T05:15:11.698Z,24.50
2019-01-05T05:18:18.991Z,24.10
2019-01-05T05:21:26.690Z,26.90
2019-01-05T05:24:30.798Z,25.93
2019-01-05T05:27:38.430Z,24.60
2019-01-05T05:30:40.365Z,25.50
2019-01-05T05:33:53.985Z,26.67
2019-01-05T05:37:20.234Z,25.17
2019-01-05T05:40:22.999Z,25.80
2019-01-05T05:43:31.115Z,23.90
2019-01-05T05:46:39.257Z,25.30
2019-01-05T05:49:51.398Z,25.93
2019-01-05T05:52:58.795Z,25.33
2019-01-05T05:56:04.452Z,26.00
2019-01-05T05:59:30.552Z,24.30
2019-01-05T06:02:38.241Z,24.17
2019-01-05T06:05:45.496Z,25.30
2019-01-05T06:08:48.487Z,26.60
2019-01-05T06:11:59.481Z,25.50
2019-01-05T06:15:02.776Z,26.60
2019-01-05T06:18:06.161Z,24.40
2019-01-05T06:21:16.971Z,26.80
2019-01-05T06:24:31.625Z,25.60
2019-01-05T06:27:33.294Z,25.93
2019-01-05T06:30:36.801Z,25.40
2019-01-05T06:33:40.529Z,25.10
2019-01-05T06:36:51.189Z,23.40
2019-01-05T06:40:07.435Z,24.70
2019-01-05T06:43:22.256Z,25.00
2019-01-05T06:46:29.070Z,24.87
2019-01-05T06:49:48.985Z,24.47
2019-01-05T06:52:51.666Z,24.73
2019-01-05T06:56:27.534Z,24.50
2019-01-05T06:59:47.674Z,26.83
2019-01-05T07:03:04.956Z,26.07
2019-01-05T07:06:08.627Z,23.60
2019-01-05T07:09:29.412Z,25.90
2019-01-05T07:12:37.216Z,21.90
2019-01-05T07:15:49.923Z,23.20
2019-01-05T07:18:53.022Z,23.10
2019-01-05T07:22:11.160Z,23.10
2019-01-05T07:25:25.403Z,22.00
2019-01-05T07:28:28.361Z,20.53
2019-01-05T07:31:24.370Z,23.10
2019-01-05T07:34:57.139Z,22.90
2019-01-05T07:38:11.119Z,21.87
2019-01-05T07:41:15.522Z,19.93
2019-01-05T07:44:30.830Z,21.60
2019-01-05T07:47:42.193Z,19.97
2019-01-05T07:50:55.009Z,20.10
2019-01-05T07:53:50.974Z,20.97
2019-01-05T07:57:04.330Z,20.20
2019-01-05T08:00:14.746Z,18.67
2019-01-05T08:03:16.364Z,20.07
2019-01-05T08:06:26.560Z,19.07
2019-01-05T08:09:31.516Z,17.00
2019-01-05T08:12:50.423Z,16.50
2019-01-05T08:15:59.176Z,16.10
2019-01-05T08:19:25.939Z,16.30
2019-01-05T08:22:30.608Z,17.20
2019-01-05T08:25:34.230Z,15.70
2019-01-05T08:28:30.340Z,16.57
2019-01-05T08:31:51.206Z,15.80
2019-01-05T08:34:54.263Z,15.30
2019-01-05T08:38:05.272Z,17.03
2019-01-05T08:41:09.920Z,16.33
2019-01-05T08:44:14.272Z,16.63
2019-01-05T08:47:35.067Z,15.80
2019-01-05T08:50:45.513Z,15.47
2019-01-05T08:54:03.310Z,15.50
2019-01-05T08:57:06.493Z,15.83
2019-01-05T09:00:26.269Z,15.83
2019-01-05T09:03:30.014Z,15.40
2019-01-05T09:07:02.781Z,16.27
2019-01-05T09:10:03.041Z,14.50
2019-01-05T09:13:32.765Z,15.13
2019-01-05T09:16:42.867Z,13.83
2019-01-05T09:20:12.635Z,12.83
2019-01-05T09:23:21.767Z,14.07
2019-01-05T09:26:26.864Z,14.30
2019-01-05T09:29:23.624Z,13.57
2019-01-05T09:32:28.279Z,14.10
2019-01-05T09:35:36.901Z,12.60
2019-01-05T09:38:55.775Z,14.60
2019-01-05T09:42:01.959Z,13.53
2019-01-05T09:45:15.120Z,12.43
2019-01-05T09:48:19.766Z,13.00
2019-01-05T09:51:39.434Z,12.77
2019-01-05T09:55:02.584Z,12.20
2019-01-05T09:58:05.554Z,13.07
2019-01-05T10:01:12.879Z,13.20
2019-01-05T10:04:11.668Z,12.10
2019-01-05T10:07:15.854Z,11.97
2019-01-05T10:10:28.295Z,12.13
2019-01-05T10:13:29.363Z,12.40
2019-01-05T10:16:49.006Z,12.63
2019-01-05T10:19:56.822Z,12.13
2019-01-05T10:23:08.910Z,10.77
2019-01-05T10:26:15.470Z,11.20
2019-01-05T10:29:32.316Z,11.40
2019-01-05T10:32:35.371Z,10.80
2019-01-05T10:35:52.888Z,10.40
2019-01-05T10:39:13.528Z,10.30
2019-01-05T10:42:29.650Z,11.33
2019-01-05T10:45:40.306Z,9.73
2019-01-05T10:48:56.784Z,10.70
2019-01-05T10:52:00.177Z,10.40
2019-01-05T10:55:03.311Z,10.30
2019-01-05T10:58:06.557Z,9.40
2019-01-05T11:01:21.248Z,9.50
2019-01-05T11:04:42.216Z,9.97
2019-01-05T11:07:53.956Z,9.30
2019-01-05T11:10:57.505Z,9.60
2019-01-05T11:14:04.082Z,10.30
2019-01-05T11:17:07.076Z,9.10
2019-01-05T11:20:18.655Z,10.03
2019-01-05T11:23:38.193Z,10.77
2019-01-05T11:26:41.450Z,9.50
2019-01-05T11:29:51.112Z,10.47
2019-01-05T11:32:55.754Z,10.73
2019-01-05T11:36:13.204Z,9.70
2019-01-05T11:39:26.038Z,9.93
2019-01-05T11:42:36.586Z,10.17
2019-01-05T11:45:52.250Z,8.97
2019-01-05T11:49:02.828Z,10.30
2019-01-05T11:52:06.469Z,10.33
2019-01-05T11:55:10.790Z,9.43
2019-01-05T11:58:27.214Z,11.17
2019-01-05T12:01:38.024Z,11.17
2019-01-05T12:05:07.681Z,10.67
2019-01-05T12:08:15.703Z,11.60
2019-01-05T12:11:11.204Z,10.60
2019-01-05T12:14:26.666Z,10.73
2019-01-05T12:17:34.277Z,10.60
2019-01-05T12:20:54.254Z,11.10
2019-01-05T12:23:59.659Z,10.87
2019-01-05T12:27:08.160Z,11.60
2019-01-05T12:30:12.676Z,10.43
2019-01-05T12:33:27.799Z,11.17
2019-01-05T12:36:46.907Z,12.07
2019-01-05T12:40:01.990Z,11.47
2019-01-05T12:43:13.762Z,11.80
2019-01-05T12:46:10.271Z,12.40
2019-01-05T12:49:16.304Z,11.17
2019-01-05T12:52:20.285Z,10.30
2019-01-05T12:55:14.185Z,10.73
2019-01-05T12:58:30.958Z,10.77
2019-01-05T13:01:44.144Z,11.87
2019-01-05T13:04:48.644Z,10.00
2019-01-05T13:08:01.472Z,10.80
2019-01-05T13:11:22.107Z,8.67
2019-01-05T13:14:38.493Z,11.00
2019-01-05T13:17:40.317Z,10.10
2019-01-05T13:20:47.637Z,10.00
2019-01-05T13:24:10.402Z,9.43
2019-01-05T13:27:18.485Z,9.50
2019-01-05T13:30:26.111Z,9.70
2019-01-05T13:33:29.193Z,9.40
2019-01-05T13:36:42.409Z,9.77
2019-01-05T13:39:50.019Z,9.10
2019-01-05T13:42:45.671Z,9.43
2019-01-05T13:45:49.421Z,9.67
2019-01-05T13:48:59.070Z,8.93
2019-01-05T13:52:01.668Z,10.10
2019-01-05T13:54:41.123Z,10.47
2019-01-05T13:57:28.417Z,11.50
2019-01-05T14:00:21.304Z,10.33
2019-01-05T14:03:08.177Z,10.90
2019-01-05T14:05:55.245Z,11.17
2019-01-05T14:08:37.809Z,11.20
2019-01-05T14:11:23.235Z,10.47
2019-01-05T14:14:28.349Z,10.87
2019-01-05T14:17:27.167Z,10.73
2019-01-05T14:20:12.951Z,10.90
2019-01-05T14:23:05.832Z,11.63
2019-01-05T14:25:53.830Z,11.40
2019-01-05T14:28:49.748Z,10.60
2019-01-05T14:31:44.489Z,10.83
2019-01-05T14:34:25.746Z,11.40
2019-01-05T14:37:30.644Z,11.50
2019-01-05T14:40:10.111Z,10.73
2019-01-05T14:42:55.457Z,10.00
2019-01-05T14:45:40.968Z,11.30
2019-01-05T14:48:33.859Z,10.23
2019-01-05T14:51:19.206Z,9.73
2019-01-05T14:54:04.815Z,11.03
2019-01-05T14:56:54.879Z,11.90
2019-01-05T14:59:41.949Z,10.70
2019-01-05T15:02:35.017Z,9.73
2019-01-05T15:05:20.534Z,10.20
2019-01-05T15:08:06.743Z,9.83
2019-01-05T15:10:53.678Z,10.90
2019-01-05T15:13:39.028Z,10.27
2019-01-05T15:16:38.070Z,10.23
2019-01-05T15:19:43.028Z,10.37
2019-01-05T15:22:25.966Z,10.63
2019-01-05T15:25:11.202Z,10.60
2019-01-05T15:27:57.096Z,11.10
2019-01-05T15:30:47.483Z,11.10
2019-01-05T15:33:39.865Z,10.87
2019-01-05T15:36:32.598Z,11.93
2019-01-05T15:39:34.708Z,11.80
2019-01-05T15:42:27.628Z,11.60
2019-01-05T15:45:12.965Z,12.10
2019-01-05T15:47:58.550Z,11.50
2019-01-05T15:50:44.566Z,12.50
2019-01-05T15:53:30.192Z,11.30
2019-01-05T15:56:22.926Z,11.70
2019-01-05T15:59:08.582Z,11.90
2019-01-05T16:02:10.482Z,11.50
2019-01-05T16:05:17.001Z,11.90
2019-01-05T16:08:02.462Z,11.90
2019-01-05T16:10:47.528Z,12.47
2019-01-05T16:13:37.081Z,12.27
2019-01-05T16:16:32.997Z,11.70
2019-01-05T16:19:22.921Z,13.30
2019-01-05T16:22:09.854Z,12.83
2019-01-05T16:25:05.939Z,14.00
2019-01-05T16:27:51.371Z,12.57
2019-01-05T16:30:34.540Z,12.60
2019-01-05T16:33:22.883Z,11.30
2019-01-05T16:36:26.189Z,12.83
2019-01-05T16:39:11.815Z,13.30
2019-01-05T16:42:16.647Z,13.60
2019-01-05T16:45:09.486Z,13.20
2019-01-05T16:48:05.328Z,13.17
2019-01-05T16:50:51.164Z,13.40
2019-01-05T16:53:38.157Z,13.40
2019-01-05T16:56:43.248Z,13.40
2019-01-05T16:59:32.986Z,13.83
2019-01-05T17:02:19.587Z,13.87
2019-01-05T17:05:12.515Z,13.87
2019-01-05T17:08:06.280Z,13.43
2019-01-05T17:11:06.209Z,12.33
2019-01-05T17:14:00.411Z,13.50
2019-01-05T17:16:56.506Z,12.53
2019-01-05T17:19:52.524Z,13.43
2019-01-05T17:22:40.281Z,13.77
2019-01-05T17:25:36.304Z,12.63
2019-01-05T17:28:26.321Z,12.90
2019-01-05T17:31:16.329Z,13.33
2019-01-05T17:34:05.816Z,13.33
2019-01-05T17:36:53.568Z,13.73
2019-01-05T17:39:38.809Z,14.23
2019-01-05T17:42:37.784Z,13.33
2019-01-05T17:45:16.284Z,13.17
2019-01-05T17:48:18.140Z,15.17
2019-01-05T17:51:06.851Z,13.27
2019-01-05T17:53:53.709Z,13.03
2019-01-05T17:56:39.173Z,15.17
2019-01-05T17:59:24.437Z,14.07
2019-01-05T18:02:10.014Z,13.77
2019-01-05T18:05:12.187Z,14.37
2019-01-05T18:07:57.380Z,15.23
2019-01-05T18:10:43.101Z,13.60
2019-01-05T18:13:48.193Z,14.90
2019-01-05T18:16:39.109Z,13.40
2019-01-05T18:19:24.428Z,15.13
2019-01-05T18:22:17.439Z,14.00
2019-01-05T18:25:03.119Z,13.80
2019-01-05T18:27:49.015Z,14.00
2019-01-05T18:30:54.191Z,13.97
2019-01-05T18:33:46.931Z,15.63
2019-01-05T18:36:36.903Z,16.00
2019-01-05T18:39:25.705Z,14.40
2019-01-05T18:42:08.350Z,14.53
2019-01-05T18:44:55.211Z,13.97
2019-01-05T18:47:43.854Z,13.47
2019-01-05T18:50:33.896Z,13.80
2019-01-05T18:53:17.340Z,14.10
2019-01-05T18:56:02.706Z,13.87
2019-01-05T18:58:47.991Z,14.20
2019-01-05T19:01:38.367Z,14.83
2019-01-05T19:04:30.912Z,15.00
2019-01-05T19:07:32.986Z,16.00
2019-01-05T19:10:25.940Z,15.70
2019-01-05T19:13:23.167Z,13.23
2019-01-05T19:16:16.019Z,15.27
2019-01-05T19:18:59.182Z,13.80
2019-01-05T19:22:01.210Z,14.67
2019-01-05T19:24:48.238Z,14.50
2019-01-05T19:27:44.026Z,15.00
2019-01-05T19:30:43.196Z,15.17
2019-01-05T19:33:42.679Z,14.73
2019-01-05T19:36:32.358Z,14.20
2019-01-05T19:39:17.923Z,13.73
2019-01-05T19:42:07.841Z,13.60
2019-01-05T19:45:03.775Z,14.20
2019-01-05T19:47:54.462Z,14.73
2019-01-05T19:50:33.869Z,14.43
2019-01-05T19:53:26.779Z,14.67
2019-01-05T19:56:25.537Z,15.43
2019-01-05T20:02:20.511Z,15.77
2019-01-05T20:05:13.456Z,15.97
2019-01-05T20:07:54.988Z,15.47
2019-01-05T20:10:41.919Z,14.60
2019-01-05T20:13:29.404Z,15.23
2019-01-05T20:16:13.587Z,15.37
2019-01-05T20:19:18.714Z,15.27
2019-01-05T20:22:11.775Z,15.37
2019-01-05T20:27:37.738Z,17.23
2019-01-05T20:30:31.327Z,15.20
2019-01-05T20:33:23.252Z,14.63
2019-01-05T20:39:12.277Z,14.77
2019-01-05T20:42:12.827Z,15.30
2019-01-05T20:45:01.348Z,14.97
2019-01-05T20:47:54.425Z,14.90
2019-01-05T20:50:44.712Z,14.63
2019-01-05T20:53:37.700Z,16.80
2019-01-05T20:56:24.793Z,14.30
2019-01-05T20:59:10.603Z,16.70
2019-01-05T21:01:56.251Z,14.80
2019-01-05T21:04:43.683Z,15.83
2019-01-05T21:07:29.037Z,16.37
2019-01-05T21:10:27.804Z,15.43
2019-01-05T21:13:33.153Z,14.27
2019-01-05T21:16:29.292Z,14.87
2019-01-05T21:19:15.026Z,14.60
2019-01-05T21:22:14.897Z,14.50
2019-01-05T21:25:00.295Z,14.33
2019-01-05T21:27:47.904Z,15.53
2019-01-05T21:30:40.889Z,16.60
2019-01-05T21:33:30.944Z,16.50
2019-01-05T21:36:20.636Z,15.20
2019-01-05T21:39:08.691Z,15.63
2019-01-05T21:42:01.593Z,15.33
2019-01-05T21:45:01.183Z,15.10
2019-01-05T21:47:54.294Z,15.63
2019-01-05T21:50:39.934Z,13.60
2019-01-05T21:53:24.998Z,16.10
2019-01-05T21:56:16.495Z,15.37
2019-01-05T21:59:03.450Z,15.80
2019-01-05T22:02:02.485Z,15.10
2019-01-05T22:04:48.088Z,14.70
2019-01-05T22:07:40.541Z,14.50
2019-01-05T22:10:36.296Z,14.90
2019-01-05T22:13:29.601Z,14.80
2019-01-05T22:16:25.772Z,13.93
2019-01-05T22:19:11.062Z,15.37
2019-01-05T22:22:10.215Z,14.10
2019-01-05T22:24:55.802Z,13.90
2019-01-05T22:27:41.937Z,14.30
2019-01-05T22:30:39.614Z,13.50
2019-01-05T22:33:19.024Z,15.50
2019-01-05T22:36:05.155Z,16.10
2019-01-05T22:38:50.709Z,15.67
2019-01-05T22:41:36.357Z,14.80
2019-01-05T22:44:22.240Z,15.10
2019-01-05T22:47:11.010Z,14.60
2019-01-05T22:49:55.157Z,14.03
2019-01-05T22:52:42.055Z,14.20
2019-01-05T22:55:41.033Z,13.97
2019-01-05T22:58:37.001Z,13.40
2019-01-05T23:01:22.595Z,13.63
2019-01-05T23:04:07.942Z,14.80
2019-01-05T23:07:02.125Z,15.53
2019-01-05T23:10:00.271Z,13.57
2019-01-05T23:12:46.074Z,13.53
2019-01-05T23:15:35.728Z,14.20
2019-01-05T23:18:21.265Z,13.70
2019-01-05T23:21:07.115Z,14.23
2019-01-05T23:24:11.000Z,13.30
2019-01-05T23:27:03.502Z,13.30
2019-01-05T23:29:48.811Z,12.73
2019-01-05T23:32:44.367Z,13.80
2019-01-05T23:35:46.460Z,13.37
2019-01-05T23:38:50.415Z,13.97
2019-01-05T23:41:35.919Z,13.50
2019-01-05T23:44:21.925Z,13.83
2019-01-05T23:47:21.294Z,12.77
2019-01-05T23:50:20.526Z,13.37
2019-01-05T23:53:06.065Z,14.67
2019-01-05T23:56:01.712Z,12.13
2019-01-05T23:59:01.055Z,13.20
